Miami Beach, Florida
Current Conditions -  °F | °C
As of 6:53 AM on Friday 28 Nov 2014 (Local Time) from KMIA Reporting Station
Few Clouds Few Clouds  
Wind Chill: 53°   Ceiling: Unl
Heat Index: 53°   Visibility: 10mi
Dew Point: 43°   Wind: 10mph
Humidity: 69%   Direction: 340°NNW
Pressure: 30.21"   Gusts: NA
Location:  25.81°N, 80.13°W
Report Text: KMIA 281153Z 34009KT 10SM FEW040 FEW300 12/06 A3021 RMK AO2 SLP231 T01170061 10150 20117 53014
Loading
Personal Weather Stations






























Interactive Weather Map New forecast layout! Learn more

10-Day Weather Forecast

Advertisements
Track Severe Weather on mobile